createdAt,value
2023-04-27T00:02:41.722Z,4.90
2023-04-27T00:07:43.565Z,4.90
2023-04-27T00:12:45.472Z,4.80
2023-04-27T00:17:47.141Z,4.80
2023-04-27T00:22:50.388Z,4.70
2023-04-27T00:27:52.256Z,4.70
2023-04-27T00:32:53.954Z,4.60
2023-04-27T00:37:55.758Z,4.60
2023-04-27T00:42:57.546Z,4.50
2023-04-27T00:47:59.735Z,4.50
2023-04-27T00:53:02.361Z,4.40
2023-04-27T00:58:04.205Z,4.40
2023-04-27T01:03:07.436Z,4.40
2023-04-27T01:08:09.724Z,4.30
2023-04-27T01:13:11.896Z,4.30
2023-04-27T01:18:15.906Z,4.20
2023-04-27T01:23:17.794Z,4.20
2023-04-27T01:28:19.512Z,4.20
2023-04-27T01:33:21.373Z,4.10
2023-04-27T01:38:24.185Z,4.10
2023-04-27T01:43:26.618Z,4.10
2023-04-27T01:48:28.281Z,4.10
2023-04-27T01:53:31.201Z,4.00
2023-04-27T01:58:32.927Z,4.00
2023-04-27T02:03:34.789Z,4.00
2023-04-27T02:08:36.837Z,3.90
2023-04-27T02:13:38.543Z,3.80
2023-04-27T02:18:40.358Z,3.80
2023-04-27T02:23:41.993Z,3.80
2023-04-27T02:28:50.150Z,3.80
2023-04-27T02:33:52.318Z,3.80
2023-04-27T02:38:54.081Z,3.80
2023-04-27T02:43:55.835Z,3.80
2023-04-27T02:48:57.551Z,3.70
2023-04-27T02:53:59.239Z,3.70
2023-04-27T02:59:01.100Z,3.70
2023-04-27T03:04:03.251Z,3.70
2023-04-27T03:09:05.357Z,3.70
2023-04-27T03:14:07.543Z,3.60
2023-04-27T03:19:09.263Z,3.60
2023-04-27T03:24:11.170Z,3.50
2023-04-27T03:29:13.173Z,3.60
2023-04-27T03:34:15.052Z,3.60
2023-04-27T03:39:18.862Z,3.60
2023-04-27T03:44:20.543Z,3.60
2023-04-27T03:49:22.229Z,3.60
2023-04-27T03:54:23.965Z,3.60
2023-04-27T03:59:28.540Z,3.60
2023-04-27T04:04:30.422Z,3.60
2023-04-27T04:09:32.315Z,3.80
2023-04-27T04:14:34.033Z,4.00
2023-04-27T04:19:35.721Z,4.20
2023-04-27T04:24:37.631Z,4.40
2023-04-27T04:29:40.375Z,4.50
2023-04-27T04:34:42.391Z,4.60
2023-04-27T04:39:45.049Z,4.60
2023-04-27T04:44:47.075Z,4.70
2023-04-27T04:50:04.548Z,4.80
2023-04-27T04:55:08.656Z,5.00
2023-04-27T05:00:13.786Z,5.20
2023-04-27T05:05:16.041Z,5.60
2023-04-27T05:10:17.941Z,5.80
2023-04-27T05:15:19.660Z,5.90
2023-04-27T05:20:21.492Z,5.90
2023-04-27T05:25:23.363Z,5.90
2023-04-27T05:30:25.352Z,6.00
2023-04-27T05:35:27.009Z,6.20
2023-04-27T05:40:29.884Z,6.50
2023-04-27T05:45:31.620Z,6.50
2023-04-27T05:50:33.302Z,6.50
2023-04-27T05:55:35.080Z,6.50
2023-04-27T06:00:36.949Z,6.50
2023-04-27T06:05:38.753Z,6.60
2023-04-27T06:10:40.815Z,6.70
2023-04-27T06:15:42.555Z,6.70
2023-04-27T06:20:44.286Z,6.80
2023-04-27T06:25:48.148Z,6.80
2023-04-27T06:30:49.940Z,6.70
2023-04-27T06:35:51.651Z,6.60
2023-04-27T06:40:53.818Z,6.80
2023-04-27T06:45:55.890Z,7.10
2023-04-27T06:50:57.680Z,7.70
2023-04-27T06:56:00.134Z,8.30
2023-04-27T07:01:02.724Z,8.90
2023-04-27T07:06:04.543Z,9.20
2023-04-27T07:11:06.430Z,9.30
2023-04-27T07:16:08.325Z,9.50
2023-04-27T07:21:10.893Z,9.40
2023-04-27T07:26:13.661Z,9.60
2023-04-27T07:31:16.097Z,10.10
2023-04-27T07:36:17.879Z,9.60
2023-04-27T07:41:20.286Z,10.10
2023-04-27T07:46:22.128Z,10.60
2023-04-27T07:51:25.137Z,10.60
2023-04-27T07:56:28.094Z,10.70
2023-04-27T08:01:29.795Z,9.90
2023-04-27T08:06:32.222Z,10.10
2023-04-27T08:11:34.272Z,9.60
2023-04-27T08:16:36.659Z,9.40
2023-04-27T08:21:39.059Z,10.30
2023-04-27T08:26:41.593Z,10.50
2023-04-27T08:31:43.606Z,9.90
2023-04-27T08:36:45.406Z,10.60
2023-04-27T08:41:47.166Z,10.60
2023-04-27T08:46:48.946Z,10.90
2023-04-27T08:51:50.857Z,10.80
2023-04-27T08:56:52.572Z,10.60
2023-04-27T09:01:54.325Z,10.60
2023-04-27T09:06:56.071Z,10.20
2023-04-27T09:11:58.001Z,10.10
2023-04-27T09:17:00.320Z,10.60
2023-04-27T09:22:08.301Z,11.10
2023-04-27T09:27:19.234Z,11.10
2023-04-27T09:32:21.503Z,11.10
2023-04-27T09:37:23.784Z,11.70
2023-04-27T09:42:25.574Z,11.90
2023-04-27T09:47:28.707Z,11.60
2023-04-27T09:52:30.545Z,12.60
2023-04-27T09:57:48.270Z,12.80
2023-04-27T10:02:55.866Z,12.60
2023-04-27T10:07:58.032Z,11.80
2023-04-27T10:13:02.852Z,12.10
2023-04-27T10:18:05.773Z,12.20
2023-04-27T10:23:08.004Z,11.30
2023-04-27T10:28:16.286Z,11.10
2023-04-27T10:33:21.720Z,11.80
2023-04-27T10:38:32.734Z,12.70
2023-04-27T10:43:35.633Z,12.70
2023-04-27T10:48:39.289Z,12.60
2023-04-27T10:53:41.223Z,13.10
2023-04-27T10:58:48.808Z,13.10
2023-04-27T11:04:02.365Z,12.70
2023-04-27T11:09:06.882Z,12.20
2023-04-27T11:14:08.851Z,12.40
2023-04-27T11:19:10.553Z,12.50
2023-04-27T11:24:15.170Z,12.80
2023-04-27T11:29:17.426Z,11.70
2023-04-27T11:34:24.213Z,12.50
2023-04-27T11:39:32.930Z,13.10
2023-04-27T11:44:34.660Z,13.90
2023-04-27T11:49:40.519Z,13.50
2023-04-27T11:54:53.829Z,13.30
2023-04-27T11:59:56.893Z,12.70
2023-04-27T12:05:01.883Z,12.60
2023-04-27T12:10:04.559Z,13.10
2023-04-27T12:15:08.528Z,12.60
2023-04-27T12:20:11.141Z,13.60
2023-04-27T12:25:13.007Z,14.00
2023-04-27T12:30:17.281Z,14.00
2023-04-27T12:35:19.058Z,13.00
2023-04-27T12:40:23.201Z,12.70
2023-04-27T12:45:24.962Z,13.90
2023-04-27T12:50:27.192Z,13.90
2023-04-27T12:55:33.852Z,14.50
2023-04-27T13:00:36.087Z,14.40
2023-04-27T13:05:37.796Z,14.00
2023-04-27T13:10:40.751Z,14.40
2023-04-27T13:15:42.539Z,14.80
2023-04-27T13:20:44.417Z,13.90
2023-04-27T13:25:46.205Z,14.40
2023-04-27T13:30:48.883Z,14.50
2023-04-27T13:35:51.719Z,13.90
2023-04-27T13:40:54.181Z,14.30
2023-04-27T13:45:57.223Z,13.90
2023-04-27T13:51:00.512Z,14.10
2023-04-27T13:56:03.095Z,13.50
2023-04-27T14:01:05.356Z,14.30
2023-04-27T14:06:07.660Z,14.80
2023-04-27T14:11:13.237Z,14.50
2023-04-27T14:16:14.934Z,14.50
2023-04-27T14:21:16.626Z,15.10
2023-04-27T14:26:19.347Z,15.30
2023-04-27T14:31:21.369Z,15.00
2023-04-27T14:36:23.165Z,14.90
2023-04-27T14:41:24.899Z,15.40
2023-04-27T14:46:26.844Z,15.70
2023-04-27T14:51:28.867Z,16.10
2023-04-27T14:56:30.660Z,15.40
2023-04-27T15:01:32.532Z,15.60
2023-04-27T15:06:34.259Z,15.10
2023-04-27T15:11:35.946Z,15.00
2023-04-27T15:16:37.870Z,14.60
2023-04-27T15:21:39.691Z,14.40
2023-04-27T15:26:41.438Z,14.70
2023-04-27T15:31:43.294Z,14.90
2023-04-27T15:36:45.094Z,15.40
2023-04-27T15:41:46.792Z,15.40
2023-04-27T15:46:48.586Z,15.80
2023-04-27T15:51:51.283Z,15.30
2023-04-27T15:56:53.006Z,15.20
2023-04-27T16:01:54.761Z,15.40
2023-04-27T16:06:56.554Z,15.50
2023-04-27T16:11:58.718Z,15.40
2023-04-27T16:17:01.680Z,15.40
2023-04-27T16:22:04.266Z,15.40
2023-04-27T16:27:06.322Z,16.80
2023-04-27T16:32:10.960Z,15.90
2023-04-27T16:37:12.843Z,15.20
2023-04-27T16:42:20.064Z,15.80
2023-04-27T16:47:22.102Z,15.80
2023-04-27T16:52:24.406Z,15.40
2023-04-27T16:57:26.228Z,15.20
2023-04-27T17:02:28.062Z,15.10
2023-04-27T17:07:32.827Z,14.90
2023-04-27T17:12:35.789Z,15.00
2023-04-27T17:17:38.250Z,14.40
2023-04-27T17:22:40.045Z,14.50
2023-04-27T17:27:41.720Z,14.40
2023-04-27T17:32:43.560Z,13.80
2023-04-27T17:37:45.696Z,13.20
2023-04-27T17:42:47.826Z,13.10
2023-04-27T17:47:50.378Z,13.10
2023-04-27T17:52:53.913Z,13.10
2023-04-27T17:57:55.980Z,13.10
2023-04-27T18:02:57.825Z,12.90
2023-04-27T18:07:59.687Z,12.70
2023-04-27T18:13:01.389Z,12.50
2023-04-27T18:18:03.117Z,12.40
2023-04-27T18:23:04.946Z,12.30
2023-04-27T18:28:06.622Z,12.20
2023-04-27T18:33:08.513Z,12.10
2023-04-27T18:38:10.413Z,12.00
2023-04-27T18:43:12.168Z,11.90
2023-04-27T18:48:13.876Z,11.80
2023-04-27T18:53:16.029Z,11.70
2023-04-27T18:58:17.774Z,11.50
2023-04-27T19:03:19.773Z,11.40
2023-04-27T19:08:21.660Z,11.40
2023-04-27T19:13:23.326Z,11.40
2023-04-27T19:18:26.179Z,11.20
2023-04-27T19:23:27.884Z,11.10
2023-04-27T19:28:29.806Z,10.90
2023-04-27T19:33:31.863Z,10.90
2023-04-27T19:38:34.177Z,10.90
2023-04-27T19:43:36.330Z,10.60
2023-04-27T19:48:38.206Z,10.50
2023-04-27T19:53:40.069Z,10.40
2023-04-27T19:58:41.929Z,10.30
2023-04-27T20:03:44.806Z,10.20
2023-04-27T20:08:46.675Z,10.10
2023-04-27T20:13:49.241Z,10.00
2023-04-27T20:18:51.691Z,9.90
2023-04-27T20:23:53.402Z,9.90
2023-04-27T20:28:55.234Z,9.80
2023-04-27T20:33:56.974Z,9.70
2023-04-27T20:39:02.564Z,9.60
2023-04-27T20:44:04.273Z,9.60
2023-04-27T20:49:06.020Z,9.40
2023-04-27T20:54:07.729Z,9.30
2023-04-27T20:59:09.435Z,9.30
2023-04-27T21:04:11.259Z,9.20
2023-04-27T21:09:13.437Z,9.20
2023-04-27T21:14:15.417Z,9.10
2023-04-27T21:19:17.754Z,9.10
2023-04-27T21:24:19.962Z,9.10
2023-04-27T21:29:21.810Z,9.00
2023-04-27T21:34:23.546Z,9.00
2023-04-27T21:39:26.727Z,9.00
2023-04-27T21:44:28.393Z,9.00
2023-04-27T21:49:30.046Z,8.90
2023-04-27T21:54:31.761Z,8.90
2023-04-27T21:59:35.505Z,8.80
2023-04-27T22:04:39.537Z,8.80
2023-04-27T22:09:41.602Z,8.70
2023-04-27T22:14:45.017Z,8.70
2023-04-27T22:19:46.978Z,8.70
2023-04-27T22:24:48.805Z,8.60
2023-04-27T22:29:50.811Z,8.50
2023-04-27T22:34:52.731Z,8.50
2023-04-27T22:39:55.446Z,8.40
2023-04-27T22:44:57.123Z,8.40
2023-04-27T22:49:59.210Z,8.40
2023-04-27T22:55:09.036Z,8.30
2023-04-27T23:00:12.047Z,8.30
2023-04-27T23:05:14.308Z,8.30
2023-04-27T23:10:18.751Z,8.30
2023-04-27T23:15:23.806Z,8.30
2023-04-27T23:20:28.804Z,8.30
2023-04-27T23:25:33.015Z,8.40
2023-04-27T23:30:34.677Z,8.40
2023-04-27T23:35:37.435Z,8.30
2023-04-27T23:40:39.108Z,8.30
2023-04-27T23:45:40.820Z,8.30
2023-04-27T23:50:42.540Z,8.20
2023-04-27T23:55:44.216Z,8.20
